createdAt,value
2018-03-21T00:00:55.422Z,68.3
2018-03-21T00:01:56.799Z,68.0
2018-03-21T00:02:58.186Z,68.3
2018-03-21T00:03:59.570Z,68.1
2018-03-21T00:05:00.950Z,68.5
2018-03-21T00:06:02.339Z,68.8
2018-03-21T00:07:03.764Z,69.5
2018-03-21T00:08:05.092Z,69.2
2018-03-21T00:09:06.475Z,69.5
2018-03-21T00:10:07.857Z,68.7
2018-03-21T00:11:09.239Z,68.4
2018-03-21T00:12:10.621Z,68.5
2018-03-21T00:13:12.163Z,68.7
2018-03-21T00:14:13.856Z,68.9
2018-03-21T00:15:15.239Z,69.3
2018-03-21T00:16:16.619Z,69.4
2018-03-21T00:17:17.999Z,69.5
2018-03-21T00:18:19.383Z,69.3
2018-03-21T00:19:20.765Z,69.6
2018-03-21T00:20:22.150Z,69.7
2018-03-21T00:21:23.534Z,70.1
2018-03-21T00:22:24.910Z,70.5
2018-03-21T00:23:26.292Z,70.6
2018-03-21T00:24:27.673Z,70.2
2018-03-21T00:25:29.061Z,70.5
2018-03-21T00:26:30.447Z,70.2
2018-03-21T00:27:31.827Z,70.3
2018-03-21T00:28:33.208Z,70.1
2018-03-21T00:29:34.587Z,70.6
2018-03-21T00:30:35.968Z,71.0
2018-03-21T00:31:37.352Z,70.2
2018-03-21T00:32:38.734Z,70.1
2018-03-21T00:33:40.118Z,70.6
2018-03-21T00:34:41.504Z,70.5
2018-03-21T00:35:42.984Z,71.0
2018-03-21T00:36:44.368Z,71.3
2018-03-21T00:37:45.752Z,71.9
2018-03-21T00:38:47.135Z,71.9
2018-03-21T00:39:48.518Z,71.9
2018-03-21T00:40:49.904Z,72.2
2018-03-21T00:41:51.287Z,71.9
2018-03-21T00:42:52.668Z,71.6
2018-03-21T00:43:54.051Z,72.3
2018-03-21T00:44:55.438Z,71.9
2018-03-21T00:45:56.820Z,72.5
2018-03-21T00:46:58.203Z,72.1
2018-03-21T00:47:59.586Z,71.9
2018-03-21T00:49:00.971Z,72.0
2018-03-21T00:50:02.356Z,72.0
2018-03-21T00:51:03.735Z,72.2
2018-03-21T00:52:05.123Z,71.8
2018-03-21T00:53:06.504Z,72.3
2018-03-21T00:54:07.894Z,72.5
2018-03-21T00:55:09.280Z,73.2
2018-03-21T00:56:10.663Z,72.9
2018-03-21T00:57:12.041Z,73.2
2018-03-21T00:58:13.445Z,73.4
2018-03-21T00:59:14.801Z,73.5
2018-03-21T01:00:16.190Z,73.6
2018-03-21T01:01:17.575Z,73.7
2018-03-21T01:02:18.966Z,73.4
2018-03-21T01:03:20.352Z,73.4
2018-03-21T01:04:21.733Z,73.7
2018-03-21T01:05:23.115Z,73.7
2018-03-21T01:06:24.494Z,74.2
2018-03-21T01:07:25.877Z,74.1
2018-03-21T01:08:27.259Z,74.0
2018-03-21T01:09:28.645Z,74.2
2018-03-21T01:10:30.025Z,73.8
2018-03-21T01:11:31.412Z,74.3
2018-03-21T01:12:32.790Z,73.6
2018-03-21T01:13:34.173Z,74.3
2018-03-21T01:14:35.556Z,74.4
2018-03-21T01:15:36.941Z,74.8
2018-03-21T01:16:38.328Z,74.9
2018-03-21T01:17:39.712Z,74.5
2018-03-21T01:18:41.096Z,74.7
2018-03-21T01:19:42.485Z,74.5
2018-03-21T01:20:43.862Z,74.8
2018-03-21T01:21:45.241Z,74.5
2018-03-21T01:22:46.622Z,74.3
2018-03-21T01:23:48.015Z,74.4
2018-03-21T01:24:49.413Z,74.4
2018-03-21T01:25:50.811Z,74.5
2018-03-21T01:26:52.197Z,74.4
2018-03-21T01:27:53.618Z,74.5
2018-03-21T01:28:55.000Z,74.4
2018-03-21T01:29:56.380Z,74.3
2018-03-21T01:30:57.800Z,74.9
2018-03-21T01:31:59.183Z,75.1
2018-03-21T01:33:00.564Z,75.5
2018-03-21T01:34:01.941Z,75.3
2018-03-21T01:35:03.320Z,75.7
2018-03-21T01:36:04.702Z,76.0
2018-03-21T01:37:06.088Z,76.2
2018-03-21T01:38:07.467Z,75.7
2018-03-21T01:39:08.865Z,75.2
2018-03-21T01:40:10.306Z,75.4
2018-03-21T01:41:11.664Z,75.5
2018-03-21T01:42:13.047Z,75.2
2018-03-21T01:43:14.431Z,75.0
2018-03-21T01:44:15.812Z,74.8
2018-03-21T01:45:17.196Z,74.8
2018-03-21T01:46:18.572Z,75.2
2018-03-21T01:47:19.961Z,74.8
2018-03-21T01:48:21.349Z,75.1
2018-03-21T01:49:22.732Z,75.0
2018-03-21T01:50:24.115Z,75.0
2018-03-21T01:51:25.502Z,75.1
2018-03-21T01:52:26.883Z,76.2
2018-03-21T01:53:28.270Z,76.7
2018-03-21T01:54:29.651Z,76.9
2018-03-21T01:55:31.034Z,77.3
2018-03-21T01:56:32.416Z,77.3
2018-03-21T01:57:33.798Z,77.4
2018-03-21T01:58:35.185Z,77.5
2018-03-21T01:59:36.568Z,78.2
2018-03-21T02:00:37.954Z,77.9
2018-03-21T02:01:39.339Z,78.0
2018-03-21T02:02:40.736Z,78.0
2018-03-21T02:03:42.108Z,78.0
2018-03-21T02:04:43.496Z,77.7
2018-03-21T02:05:44.880Z,77.6
2018-03-21T02:06:46.269Z,78.0
2018-03-21T02:07:47.653Z,77.5
2018-03-21T02:08:49.035Z,77.6
2018-03-21T02:09:50.416Z,77.8
2018-03-21T02:10:51.800Z,78.0
2018-03-21T02:11:53.183Z,77.8
2018-03-21T02:12:54.563Z,77.7
2018-03-21T02:13:55.972Z,77.3
2018-03-21T02:14:57.418Z,77.6
2018-03-21T02:15:58.798Z,77.4
2018-03-21T02:17:00.176Z,77.9
2018-03-21T02:18:01.557Z,77.7
2018-03-21T02:19:02.939Z,77.8
2018-03-21T02:20:04.325Z,77.8
2018-03-21T02:21:05.724Z,78.2
2018-03-21T02:22:07.106Z,78.0
2018-03-21T02:23:08.482Z,78.1
2018-03-21T02:24:09.864Z,77.7
2018-03-21T02:25:11.249Z,77.5
2018-03-21T02:26:12.635Z,78.1
2018-03-21T02:27:14.018Z,77.6
2018-03-21T02:28:15.401Z,77.9
2018-03-21T02:29:16.787Z,78.1
2018-03-21T02:30:18.168Z,77.9
2018-03-21T02:31:19.547Z,78.4
2018-03-21T02:32:20.929Z,78.2
2018-03-21T02:33:22.323Z,78.2
2018-03-21T02:34:23.706Z,78.6
2018-03-21T02:35:25.088Z,78.6
2018-03-21T02:36:26.470Z,78.9
2018-03-21T02:37:27.852Z,78.1
2018-03-21T02:38:29.228Z,78.0
2018-03-21T02:39:30.630Z,78.1
2018-03-21T02:40:32.014Z,78.2
2018-03-21T02:41:33.393Z,78.3
2018-03-21T02:42:34.780Z,78.4
2018-03-21T02:43:36.157Z,78.4
2018-03-21T02:44:37.538Z,78.2
2018-03-21T02:45:38.919Z,78.5
2018-03-21T02:46:40.297Z,78.1
2018-03-21T02:47:41.683Z,78.2
2018-03-21T02:48:43.063Z,78.2
2018-03-21T02:49:44.442Z,78.7
2018-03-21T02:50:45.839Z,78.5
2018-03-21T02:51:47.218Z,78.6
2018-03-21T02:52:48.600Z,78.2
2018-03-21T02:53:49.980Z,78.2
2018-03-21T02:54:51.360Z,78.3
2018-03-21T02:55:52.756Z,78.1
2018-03-21T02:56:54.137Z,78.4
2018-03-21T02:57:55.517Z,78.9
2018-03-21T02:58:56.902Z,79.3
2018-03-21T02:59:58.284Z,79.2
2018-03-21T03:00:59.670Z,78.9
2018-03-21T03:02:01.052Z,78.9
2018-03-21T03:03:02.461Z,79.1
2018-03-21T03:04:03.898Z,79.4
2018-03-21T03:05:05.307Z,79.2
2018-03-21T03:06:06.700Z,78.9
2018-03-21T03:07:08.064Z,79.0
2018-03-21T03:08:09.458Z,79.8
2018-03-21T03:09:10.836Z,79.6
2018-03-21T03:10:12.231Z,79.3
2018-03-21T03:11:13.604Z,79.3
2018-03-21T03:12:14.987Z,79.8
2018-03-21T03:13:16.364Z,79.7
2018-03-21T03:14:17.746Z,79.9
2018-03-21T03:15:19.128Z,80.0
2018-03-21T03:16:20.510Z,79.7
2018-03-21T03:17:21.899Z,80.0
2018-03-21T03:18:23.280Z,79.8
2018-03-21T03:19:24.674Z,79.9
2018-03-21T03:20:26.058Z,79.9
2018-03-21T03:21:27.434Z,80.3
2018-03-21T03:22:28.815Z,79.8
2018-03-21T03:23:30.199Z,80.0
2018-03-21T03:24:31.579Z,79.9
2018-03-21T03:25:32.961Z,79.8
2018-03-21T03:26:34.349Z,79.9
2018-03-21T03:27:35.732Z,79.3
2018-03-21T03:28:37.106Z,79.3
2018-03-21T03:29:38.486Z,79.2
2018-03-21T03:30:39.873Z,79.5
2018-03-21T03:31:41.251Z,80.1
2018-03-21T03:32:42.631Z,80.1
2018-03-21T03:33:44.015Z,80.3
2018-03-21T03:34:45.420Z,80.5
2018-03-21T03:35:46.803Z,80.9
2018-03-21T03:36:48.190Z,81.4
2018-03-21T03:37:49.569Z,81.7
2018-03-21T03:38:50.952Z,81.8
2018-03-21T03:39:52.338Z,81.8
2018-03-21T03:40:53.718Z,81.9
2018-03-21T03:41:55.095Z,81.9
2018-03-21T03:42:56.483Z,81.9
2018-03-21T03:43:57.872Z,81.8
2018-03-21T03:44:59.244Z,81.9
2018-03-21T03:46:00.628Z,82.0
2018-03-21T03:47:02.015Z,81.8
2018-03-21T03:48:03.393Z,81.7
2018-03-21T03:49:04.772Z,81.8
2018-03-21T03:50:06.157Z,82.0
2018-03-21T03:51:07.535Z,81.7
2018-03-21T03:52:08.965Z,82.0
2018-03-21T03:53:10.412Z,82.1
2018-03-21T03:54:11.792Z,81.7
2018-03-21T03:55:13.175Z,81.9
2018-03-21T03:56:14.602Z,81.7
2018-03-21T03:57:15.938Z,81.9
2018-03-21T03:58:17.318Z,81.9
2018-03-21T03:59:18.712Z,81.8
2018-03-21T04:00:20.088Z,81.8
2018-03-21T04:01:21.472Z,81.7
2018-03-21T04:02:22.858Z,82.2
2018-03-21T04:03:24.238Z,82.1
2018-03-21T04:04:25.623Z,81.7
2018-03-21T04:05:27.003Z,81.9
2018-03-21T04:06:28.385Z,82.3
2018-03-21T04:07:29.770Z,81.9
2018-03-21T04:08:31.153Z,81.9
2018-03-21T04:09:32.538Z,81.7
2018-03-21T04:10:33.922Z,81.8
2018-03-21T04:11:35.314Z,81.9
2018-03-21T04:12:36.695Z,81.7
2018-03-21T04:13:38.079Z,81.7
2018-03-21T04:14:39.467Z,82.0
2018-03-21T04:15:40.848Z,82.5
2018-03-21T04:16:42.237Z,81.8
2018-03-21T04:17:43.618Z,82.5
2018-03-21T04:18:44.996Z,82.7
2018-03-21T04:19:46.380Z,82.0
2018-03-21T04:20:47.761Z,82.5
2018-03-21T04:21:49.140Z,82.5
2018-03-21T04:22:50.527Z,82.6
2018-03-21T04:23:51.914Z,82.6
2018-03-21T04:24:53.295Z,82.6
2018-03-21T04:25:54.679Z,82.8
2018-03-21T04:26:56.086Z,82.8
2018-03-21T04:27:57.472Z,82.9
2018-03-21T04:28:58.853Z,83.1
2018-03-21T04:30:00.233Z,82.8
2018-03-21T04:31:01.626Z,83.2
2018-03-21T04:32:03.007Z,82.8
2018-03-21T04:33:04.397Z,83.3
2018-03-21T04:34:05.778Z,83.1
2018-03-21T04:35:07.169Z,82.9
2018-03-21T04:36:08.567Z,83.5
2018-03-21T04:37:09.953Z,83.2
2018-03-21T04:38:11.341Z,83.6
2018-03-21T04:39:12.731Z,83.8
2018-03-21T04:40:14.119Z,83.7
2018-03-21T04:41:15.600Z,83.8
2018-03-21T04:42:17.044Z,83.6
2018-03-21T04:43:18.423Z,83.8
2018-03-21T04:44:19.808Z,84.8
2018-03-21T04:45:21.199Z,84.3
2018-03-21T04:46:22.580Z,83.9
2018-03-21T04:47:23.965Z,84.5
2018-03-21T04:48:25.364Z,84.6
2018-03-21T04:49:26.772Z,85.1
2018-03-21T04:50:28.160Z,85.2
2018-03-21T04:51:29.545Z,85.2
2018-03-21T04:52:30.935Z,85.2
2018-03-21T04:53:32.356Z,85.2
2018-03-21T04:54:33.702Z,85.8
2018-03-21T04:55:35.085Z,85.7
2018-03-21T04:56:36.476Z,86.3
2018-03-21T04:57:37.866Z,86.0
2018-03-21T04:58:39.257Z,86.4
2018-03-21T04:59:40.636Z,87.1
2018-03-21T05:00:42.025Z,87.0
2018-03-21T05:01:43.410Z,86.9
2018-03-21T05:02:44.790Z,87.5
2018-03-21T05:03:46.181Z,87.7
2018-03-21T05:04:47.566Z,87.5
2018-03-21T05:05:48.954Z,87.6
2018-03-21T05:06:50.367Z,87.9
2018-03-21T05:07:51.729Z,88.3
2018-03-21T05:08:53.114Z,88.6
2018-03-21T05:09:54.500Z,88.5
2018-03-21T05:10:55.908Z,89.3
2018-03-21T05:11:57.297Z,89.6
2018-03-21T05:12:58.678Z,89.9
2018-03-21T05:14:00.077Z,90.3
2018-03-21T05:15:01.472Z,90.4
2018-03-21T05:16:02.856Z,90.9
2018-03-21T05:17:04.251Z,90.6
2018-03-21T05:18:05.636Z,91.2
2018-03-21T05:19:07.022Z,91.6
2018-03-21T05:20:08.416Z,91.8
2018-03-21T05:21:09.796Z,92.2
2018-03-21T05:22:11.181Z,93.2
2018-03-21T05:23:12.566Z,93.8
2018-03-21T05:24:13.948Z,94.2
2018-03-21T05:25:15.336Z,94.8
2018-03-21T05:26:16.730Z,95.5
2018-03-21T05:27:18.109Z,95.5
2018-03-21T05:28:19.497Z,95.3
2018-03-21T05:29:20.887Z,95.6
2018-03-21T05:30:22.342Z,96.1
2018-03-21T05:31:23.732Z,95.5
2018-03-21T05:32:25.120Z,96.0
2018-03-21T05:33:26.505Z,96.8
2018-03-21T05:34:27.895Z,96.4
2018-03-21T05:35:29.287Z,96.9
2018-03-21T05:36:30.680Z,97.3
2018-03-21T05:37:32.071Z,97.7
2018-03-21T05:38:33.455Z,97.7
2018-03-21T05:39:34.841Z,97.9
2018-03-21T05:40:36.237Z,98.1
2018-03-21T05:41:37.629Z,98.5
2018-03-21T05:42:39.015Z,98.4
2018-03-21T05:43:40.417Z,98.9
2018-03-21T05:44:41.805Z,99.0
2018-03-21T05:45:43.198Z,99.4
2018-03-21T05:46:44.583Z,99.2
2018-03-21T05:47:45.985Z,99.9
2018-03-21T05:48:47.377Z,99.7
2018-03-21T05:49:48.767Z,100.0
2018-03-21T05:50:50.157Z,100.0
2018-03-21T05:51:51.551Z,100.0
2018-03-21T05:52:52.945Z,100.0
2018-03-21T05:53:54.334Z,100.0
2018-03-21T05:54:55.738Z,100.0
2018-03-21T05:55:57.129Z,100.0
2018-03-21T05:56:58.518Z,100.0
2018-03-21T05:57:59.905Z,100.0
2018-03-21T05:59:01.307Z,100.0
2018-03-21T06:00:02.694Z,100.0
2018-03-21T06:01:04.084Z,100.0
2018-03-21T06:02:05.503Z,100.0
2018-03-21T06:03:06.894Z,100.0
2018-03-21T06:04:08.284Z,100.0
2018-03-21T06:05:09.673Z,100.0
2018-03-21T06:06:11.066Z,100.0
2018-03-21T06:07:12.455Z,100.0
2018-03-21T06:08:13.846Z,100.0
2018-03-21T06:09:15.238Z,100.0
2018-03-21T06:10:16.633Z,100.0
2018-03-21T06:11:18.031Z,100.0
2018-03-21T06:12:19.422Z,100.0
2018-03-21T06:13:20.810Z,100.0
2018-03-21T06:14:22.207Z,100.0
2018-03-21T06:15:23.592Z,100.0
2018-03-21T06:16:24.980Z,100.0
2018-03-21T06:17:26.370Z,100.0
2018-03-21T06:18:27.772Z,100.0
2018-03-21T06:19:29.165Z,100.0
2018-03-21T06:20:30.558Z,100.0
2018-03-21T06:21:31.949Z,100.0
2018-03-21T06:22:33.344Z,100.0
2018-03-21T06:23:34.731Z,100.0
2018-03-21T06:24:36.122Z,100.0
2018-03-21T06:25:37.513Z,100.0
2018-03-21T06:26:39.384Z,100.0
2018-03-21T06:27:40.765Z,100.0
2018-03-21T06:28:42.186Z,100.0
2018-03-21T06:29:43.568Z,100.0
2018-03-21T06:30:44.960Z,100.0
2018-03-21T06:31:46.377Z,100.0
2018-03-21T06:32:47.770Z,100.0
2018-03-21T06:33:49.162Z,100.0
2018-03-21T06:34:50.550Z,100.0
2018-03-21T06:35:51.963Z,100.0
2018-03-21T06:36:53.347Z,100.0
2018-03-21T06:37:54.738Z,100.0
2018-03-21T06:38:56.135Z,100.0
2018-03-21T06:39:57.522Z,100.0
2018-03-21T06:40:58.911Z,100.0
2018-03-21T06:42:00.302Z,100.0
2018-03-21T06:43:02.423Z,100.0
2018-03-21T06:44:03.823Z,100.0
2018-03-21T06:45:05.204Z,100.0
2018-03-21T06:46:06.591Z,100.0
2018-03-21T06:47:07.981Z,100.0
2018-03-21T06:48:09.372Z,100.0
2018-03-21T06:49:10.770Z,100.0
2018-03-21T06:50:12.158Z,100.0
2018-03-21T06:51:13.550Z,100.0
2018-03-21T06:52:14.940Z,100.0
2018-03-21T06:53:16.343Z,100.0
2018-03-21T06:54:17.733Z,100.0
2018-03-21T06:55:19.125Z,100.0
2018-03-21T06:56:20.521Z,100.0
2018-03-21T06:57:21.913Z,100.0
2018-03-21T06:58:23.305Z,100.0
2018-03-21T06:59:24.694Z,100.0
2018-03-21T07:00:26.087Z,100.0
2018-03-21T07:01:27.478Z,100.0
2018-03-21T07:02:28.907Z,100.0
2018-03-21T07:03:30.251Z,100.0
2018-03-21T07:04:31.648Z,100.0
2018-03-21T07:05:33.059Z,100.0
2018-03-21T07:06:34.498Z,100.0
2018-03-21T07:07:35.922Z,100.0
2018-03-21T07:08:37.313Z,100.0
2018-03-21T07:09:38.700Z,100.0
2018-03-21T07:10:40.103Z,100.0
2018-03-21T07:11:41.498Z,100.0
2018-03-21T07:12:42.899Z,100.0
2018-03-21T07:13:44.280Z,100.0
2018-03-21T07:14:45.676Z,100.0
2018-03-21T07:15:47.099Z,100.0
2018-03-21T07:16:48.489Z,100.0
2018-03-21T07:17:49.877Z,100.0
2018-03-21T07:18:51.266Z,100.0
2018-03-21T07:19:52.665Z,100.0
2018-03-21T07:20:54.060Z,100.0
2018-03-21T07:21:55.458Z,100.0
2018-03-21T07:22:56.844Z,100.0
2018-03-21T07:23:58.237Z,100.0
2018-03-21T07:24:59.630Z,100.0
2018-03-21T07:26:01.023Z,100.0
2018-03-21T07:27:02.418Z,100.0
2018-03-21T07:28:03.807Z,100.0
2018-03-21T07:29:05.210Z,100.0
2018-03-21T07:30:06.604Z,100.0
2018-03-21T07:31:08.003Z,100.0
2018-03-21T07:32:09.383Z,100.0
2018-03-21T07:33:10.783Z,100.0
2018-03-21T07:34:12.173Z,100.0
2018-03-21T07:35:13.587Z,100.0
2018-03-21T07:36:14.956Z,100.0
2018-03-21T07:37:16.347Z,100.0
2018-03-21T07:38:17.730Z,100.0
2018-03-21T07:39:19.110Z,100.0
2018-03-21T07:40:20.508Z,100.0
2018-03-21T07:41:21.892Z,100.0
2018-03-21T07:42:23.306Z,100.0
2018-03-21T07:43:24.690Z,100.0
2018-03-21T07:44:26.080Z,100.0
2018-03-21T07:45:27.467Z,100.0
2018-03-21T07:46:28.852Z,100.0
2018-03-21T07:47:30.257Z,100.0
2018-03-21T07:48:31.645Z,100.0
2018-03-21T07:49:33.036Z,100.0
2018-03-21T07:50:34.421Z,100.0
2018-03-21T07:51:35.845Z,100.0
2018-03-21T07:52:37.229Z,100.0
2018-03-21T07:53:38.621Z,100.0
2018-03-21T07:54:40.053Z,100.0
2018-03-21T07:55:41.470Z,100.0
2018-03-21T07:56:42.884Z,100.0
2018-03-21T07:57:44.243Z,100.0
2018-03-21T07:58:45.632Z,100.0
2018-03-21T07:59:47.018Z,100.0
2018-03-21T08:00:48.434Z,100.0
2018-03-21T08:01:49.826Z,100.0
2018-03-21T08:02:51.297Z,100.0
2018-03-21T08:03:52.683Z,100.0
2018-03-21T08:04:54.082Z,100.0
2018-03-21T08:05:55.472Z,100.0
2018-03-21T08:06:56.856Z,100.0
2018-03-21T08:07:58.244Z,100.0
2018-03-21T08:08:59.642Z,100.0
2018-03-21T08:10:01.048Z,100.0
2018-03-21T08:11:02.456Z,100.0
2018-03-21T08:12:03.825Z,100.0
2018-03-21T08:13:05.214Z,100.0
2018-03-21T08:14:06.600Z,100.0
2018-03-21T08:15:07.987Z,100.0
2018-03-21T08:16:09.372Z,100.0
2018-03-21T08:17:10.765Z,100.0
2018-03-21T08:18:12.160Z,100.0
2018-03-21T08:19:13.565Z,100.0
2018-03-21T08:20:14.949Z,100.0
2018-03-21T08:21:16.332Z,100.0
2018-03-21T08:22:17.715Z,100.0
2018-03-21T08:23:19.114Z,100.0
2018-03-21T08:24:20.514Z,100.0
2018-03-21T08:25:21.892Z,100.0
2018-03-21T08:26:23.299Z,100.0
2018-03-21T08:27:24.693Z,100.0
2018-03-21T08:28:26.075Z,100.0
2018-03-21T08:29:27.463Z,100.0
2018-03-21T08:30:28.855Z,100.0
2018-03-21T08:31:30.240Z,100.0
2018-03-21T08:32:31.630Z,100.0
2018-03-21T08:33:33.017Z,100.0
2018-03-21T08:34:34.406Z,100.0
2018-03-21T08:35:35.794Z,100.0
2018-03-21T08:36:37.180Z,100.0
2018-03-21T08:37:38.575Z,100.0
2018-03-21T08:38:39.958Z,99.7
2018-03-21T08:39:41.370Z,100.0
2018-03-21T08:40:42.758Z,99.9
2018-03-21T08:41:44.148Z,100.0
2018-03-21T08:42:45.560Z,99.7
2018-03-21T08:43:47.010Z,99.7
2018-03-21T08:44:48.397Z,100.0
2018-03-21T08:45:49.787Z,100.0
2018-03-21T08:46:51.176Z,100.0
2018-03-21T08:47:52.567Z,100.0
2018-03-21T08:48:53.958Z,99.6
2018-03-21T08:49:55.351Z,99.6
2018-03-21T08:50:56.735Z,99.5
2018-03-21T08:51:58.122Z,99.1
2018-03-21T08:52:59.523Z,98.9
2018-03-21T08:54:00.913Z,98.5
2018-03-21T08:55:02.309Z,97.8
2018-03-21T08:56:03.700Z,97.7
2018-03-21T08:57:05.110Z,97.4
2018-03-21T08:58:06.495Z,97.4
2018-03-21T08:59:07.883Z,97.1
2018-03-21T09:00:09.275Z,96.8
2018-03-21T09:01:10.666Z,96.2
2018-03-21T09:02:12.055Z,96.5
2018-03-21T09:03:13.444Z,96.2
2018-03-21T09:04:14.831Z,96.2
2018-03-21T09:05:16.215Z,96.6
2018-03-21T09:06:17.598Z,95.6
2018-03-21T09:07:18.985Z,95.9
2018-03-21T09:08:20.372Z,95.7
2018-03-21T09:09:21.762Z,95.7
2018-03-21T09:10:23.175Z,95.1
2018-03-21T09:11:24.558Z,94.5
2018-03-21T09:12:25.949Z,94.8
2018-03-21T09:13:27.334Z,94.7
2018-03-21T09:14:28.733Z,93.9
2018-03-21T09:15:30.120Z,94.3
2018-03-21T09:16:31.512Z,94.2
2018-03-21T09:17:32.899Z,94.2
2018-03-21T09:18:34.287Z,93.7
2018-03-21T09:19:35.676Z,94.0
2018-03-21T09:20:37.129Z,94.1
2018-03-21T09:21:38.457Z,94.8
2018-03-21T09:22:39.847Z,94.7
2018-03-21T09:23:41.234Z,94.4
2018-03-21T09:24:42.621Z,94.3
2018-03-21T09:25:44.005Z,93.9
2018-03-21T09:26:45.394Z,94.5
2018-03-21T09:27:46.782Z,93.9
2018-03-21T09:28:48.173Z,94.1
2018-03-21T09:29:49.562Z,94.3
2018-03-21T09:30:50.972Z,94.9
2018-03-21T09:31:52.364Z,94.8
2018-03-21T09:32:53.767Z,94.6
2018-03-21T09:33:55.154Z,95.3
2018-03-21T09:34:56.542Z,94.5
2018-03-21T09:35:57.932Z,94.3
2018-03-21T09:36:59.325Z,95.0
2018-03-21T09:38:00.715Z,94.9
2018-03-21T09:39:02.107Z,94.8
2018-03-21T09:40:03.521Z,94.1
2018-03-21T09:41:04.880Z,93.8
2018-03-21T09:42:06.266Z,93.1
2018-03-21T09:43:07.655Z,92.7
2018-03-21T09:44:09.044Z,92.8
2018-03-21T09:45:10.433Z,93.0
2018-03-21T09:46:11.822Z,93.8
2018-03-21T09:47:13.206Z,93.7
2018-03-21T09:48:14.592Z,93.9
2018-03-21T09:49:15.977Z,93.1
2018-03-21T09:50:17.392Z,92.8
2018-03-21T09:51:18.772Z,92.7
2018-03-21T09:52:20.156Z,92.4
2018-03-21T09:53:21.544Z,92.3
2018-03-21T09:54:22.939Z,92.9
2018-03-21T09:55:24.360Z,92.8
2018-03-21T09:56:25.711Z,93.2
2018-03-21T09:57:27.103Z,92.6
2018-03-21T09:58:28.491Z,92.5
2018-03-21T09:59:29.881Z,91.1
2018-03-21T10:00:31.269Z,91.3
2018-03-21T10:01:32.656Z,90.5
2018-03-21T10:02:34.047Z,90.1
2018-03-21T10:03:35.436Z,90.8
2018-03-21T10:04:36.821Z,90.2
2018-03-21T10:05:38.216Z,89.3
2018-03-21T10:06:39.601Z,89.2
2018-03-21T10:07:40.996Z,89.4
2018-03-21T10:08:42.394Z,88.6
2018-03-21T10:09:43.765Z,89.0
2018-03-21T10:10:45.155Z,88.4
2018-03-21T10:11:46.548Z,88.4
2018-03-21T10:12:47.935Z,88.7
2018-03-21T10:13:49.321Z,89.0
2018-03-21T10:14:50.713Z,89.3
2018-03-21T10:15:52.115Z,90.0
2018-03-21T10:16:53.499Z,89.8
2018-03-21T10:17:54.893Z,89.0
2018-03-21T10:18:56.285Z,88.7
2018-03-21T10:19:57.674Z,88.2
2018-03-21T10:20:59.141Z,89.2
2018-03-21T10:22:00.584Z,89.5
2018-03-21T10:23:01.975Z,89.5
2018-03-21T10:24:03.360Z,89.4
2018-03-21T10:25:04.749Z,89.2
2018-03-21T10:26:06.139Z,88.5
2018-03-21T10:27:07.531Z,88.2
2018-03-21T10:28:08.921Z,87.9
2018-03-21T10:29:10.315Z,87.1
2018-03-21T10:30:11.703Z,87.4
2018-03-21T10:31:13.087Z,87.9
2018-03-21T10:32:14.480Z,88.2
2018-03-21T10:33:15.870Z,87.3
2018-03-21T10:34:17.251Z,87.2
2018-03-21T10:35:18.641Z,87.1
2018-03-21T10:36:20.033Z,87.2
2018-03-21T10:37:21.420Z,87.5
2018-03-21T10:38:22.807Z,87.5
2018-03-21T10:39:24.197Z,87.3
2018-03-21T10:40:25.585Z,87.1
2018-03-21T10:41:26.977Z,87.4
2018-03-21T10:42:28.380Z,88.1
2018-03-21T10:43:29.772Z,88.1
2018-03-21T10:44:31.160Z,87.8
2018-03-21T10:45:32.546Z,88.1
2018-03-21T10:46:33.933Z,88.4
2018-03-21T10:47:35.323Z,88.2
2018-03-21T10:48:36.716Z,88.0
2018-03-21T10:49:38.105Z,87.8
2018-03-21T10:50:39.495Z,87.3
2018-03-21T10:51:40.891Z,87.1
2018-03-21T10:52:42.272Z,86.4
2018-03-21T10:53:43.675Z,86.4
2018-03-21T10:54:45.060Z,86.5
2018-03-21T10:55:46.448Z,86.5
2018-03-21T10:56:47.848Z,87.5
2018-03-21T10:57:49.229Z,87.3
2018-03-21T10:58:50.621Z,87.6
2018-03-21T10:59:52.016Z,87.2
2018-03-21T11:00:53.408Z,87.4
2018-03-21T11:01:54.796Z,87.2
2018-03-21T11:02:56.183Z,87.5
2018-03-21T11:03:57.576Z,87.6
2018-03-21T11:04:58.976Z,87.3
2018-03-21T11:06:00.364Z,87.7
2018-03-21T11:07:01.750Z,87.3
2018-03-21T11:08:03.136Z,88.0
2018-03-21T11:09:04.535Z,87.5
2018-03-21T11:10:05.944Z,88.1
2018-03-21T11:11:07.374Z,88.1
2018-03-21T11:12:08.764Z,88.2
2018-03-21T11:13:10.152Z,88.7
2018-03-21T11:14:11.540Z,90.0
2018-03-21T11:15:12.929Z,90.1
2018-03-21T11:16:14.320Z,88.6
2018-03-21T11:17:15.711Z,88.6
2018-03-21T11:18:17.100Z,88.4
2018-03-21T11:19:18.533Z,88.4
2018-03-21T11:20:19.877Z,87.8
2018-03-21T11:21:21.265Z,87.5
2018-03-21T11:22:22.654Z,87.2
2018-03-21T11:23:24.043Z,87.5
2018-03-21T11:24:25.433Z,87.5
2018-03-21T11:25:26.825Z,87.4
2018-03-21T11:26:28.216Z,87.2
2018-03-21T11:27:29.601Z,87.5
2018-03-21T11:28:30.992Z,87.5
2018-03-21T11:29:32.382Z,86.8
2018-03-21T11:30:33.774Z,86.9
2018-03-21T11:31:35.164Z,87.3
2018-03-21T11:32:36.554Z,87.4
2018-03-21T11:33:37.945Z,87.7
2018-03-21T11:34:39.329Z,87.5
2018-03-21T11:35:40.718Z,87.5
2018-03-21T11:36:42.106Z,87.5
2018-03-21T11:37:43.495Z,87.5
2018-03-21T11:38:44.899Z,87.5
2018-03-21T11:39:46.292Z,87.5
2018-03-21T11:40:47.681Z,86.7
2018-03-21T11:41:49.071Z,87.4
2018-03-21T11:42:50.470Z,86.5
2018-03-21T11:43:51.855Z,86.4
2018-03-21T11:44:53.253Z,85.7
2018-03-21T11:45:54.631Z,84.9
2018-03-21T11:46:56.021Z,85.3
2018-03-21T11:47:57.413Z,84.7
2018-03-21T11:48:58.808Z,84.7
2018-03-21T11:50:00.196Z,84.4
2018-03-21T11:51:01.586Z,82.7
2018-03-21T11:52:02.977Z,83.1
2018-03-21T11:53:04.371Z,82.9
2018-03-21T11:54:05.760Z,83.1
2018-03-21T11:55:07.152Z,82.4
2018-03-21T11:56:08.549Z,81.1
2018-03-21T11:57:09.936Z,80.9
2018-03-21T11:58:11.334Z,80.7
2018-03-21T11:59:12.744Z,81.2
2018-03-21T12:00:14.179Z,80.7
2018-03-21T12:01:15.569Z,80.1
2018-03-21T12:02:16.961Z,78.6
2018-03-21T12:03:18.351Z,77.4
2018-03-21T12:04:19.749Z,78.1
2018-03-21T12:05:21.143Z,77.7
2018-03-21T12:06:22.534Z,77.9
2018-03-21T12:07:23.927Z,77.0
2018-03-21T12:08:25.327Z,77.1
2018-03-21T12:09:26.713Z,77.2
2018-03-21T12:10:28.105Z,75.9
2018-03-21T12:11:29.495Z,76.0
2018-03-21T12:12:30.889Z,75.6
2018-03-21T12:13:32.279Z,74.8
2018-03-21T12:14:33.670Z,75.1
2018-03-21T12:15:35.066Z,75.2
2018-03-21T12:16:36.457Z,74.4
2018-03-21T12:17:37.851Z,74.1
2018-03-21T12:18:39.240Z,74.3
2018-03-21T12:19:40.629Z,75.1
2018-03-21T12:20:42.023Z,74.9
2018-03-21T12:21:43.415Z,74.3
2018-03-21T12:22:44.809Z,74.8
2018-03-21T12:23:46.198Z,75.2
2018-03-21T12:24:47.591Z,74.6
2018-03-21T12:25:48.978Z,74.2
2018-03-21T12:26:50.369Z,75.3
2018-03-21T12:27:51.757Z,75.2
2018-03-21T12:28:53.148Z,75.6
2018-03-21T12:29:54.535Z,75.3
2018-03-21T12:30:55.929Z,75.5
2018-03-21T12:31:57.333Z,75.4
2018-03-21T12:32:58.725Z,75.5
2018-03-21T12:34:00.113Z,74.3
2018-03-21T12:35:01.510Z,74.0
2018-03-21T12:36:02.899Z,74.0
2018-03-21T12:37:04.292Z,74.0
2018-03-21T12:38:05.687Z,74.3
2018-03-21T12:39:07.085Z,74.2
2018-03-21T12:40:08.468Z,72.2
2018-03-21T12:41:09.859Z,71.7
2018-03-21T12:42:11.250Z,71.7
2018-03-21T12:43:12.645Z,71.4
2018-03-21T12:44:14.042Z,70.7
2018-03-21T12:45:15.437Z,70.4
2018-03-21T12:46:16.829Z,70.5
2018-03-21T12:47:18.218Z,70.7
2018-03-21T12:48:19.643Z,71.5
2018-03-21T12:49:21.024Z,71.6
2018-03-21T12:50:22.419Z,71.9
2018-03-21T12:51:23.813Z,71.2
2018-03-21T12:52:25.208Z,71.3
2018-03-21T12:53:26.599Z,70.7
2018-03-21T12:54:27.984Z,70.5
2018-03-21T12:55:29.379Z,70.6
2018-03-21T12:56:30.773Z,70.5
2018-03-21T12:57:32.167Z,70.8
2018-03-21T12:58:33.563Z,69.6
2018-03-21T12:59:34.967Z,69.3
2018-03-21T13:00:36.359Z,69.3
2018-03-21T13:01:37.796Z,68.2
2018-03-21T13:02:39.142Z,68.6
2018-03-21T13:03:40.551Z,69.8
2018-03-21T13:04:41.944Z,70.4
2018-03-21T13:05:43.340Z,70.5
2018-03-21T13:06:44.736Z,69.8
2018-03-21T13:07:46.203Z,69.6
2018-03-21T13:08:47.526Z,68.8
2018-03-21T13:09:48.920Z,68.5
2018-03-21T13:10:50.313Z,69.4
2018-03-21T13:11:51.709Z,69.5
2018-03-21T13:12:53.105Z,68.3
2018-03-21T13:13:54.501Z,68.2
2018-03-21T13:14:55.891Z,67.4
2018-03-21T13:15:57.281Z,67.5
2018-03-21T13:16:58.674Z,68.2
2018-03-21T13:18:00.068Z,68.2
2018-03-21T13:19:01.462Z,67.8
2018-03-21T13:20:02.857Z,67.8
2018-03-21T13:21:04.264Z,67.6
2018-03-21T13:22:05.641Z,68.1
2018-03-21T13:23:07.041Z,67.3
2018-03-21T13:24:08.427Z,67.5
2018-03-21T13:25:09.826Z,67.9
2018-03-21T13:26:11.216Z,67.3
2018-03-21T13:27:12.611Z,67.1
2018-03-21T13:28:14.007Z,67.3
2018-03-21T13:29:15.398Z,67.5
2018-03-21T13:30:16.788Z,68.0
2018-03-21T13:31:18.179Z,68.2